Time;durP1;ratioP1;P1;durP2;ratioP2;P2;SDS_P1;SDS_P2;PMS_P1;PMS_P2;Temp;Humidity;BMP_temperature;BMP_pressure;BME280_temperature;BME280_humidity;BME280_pressure;Samples;Min_cycle;Max_cycle;Signal;HPM_P1;HPM_P2
2020/12/19 00:01:28;;;;;;;;;;;;;;;7.24;57.48;101908.00;4960519;28;98650;-85
2020/12/19 00:03:57;;;;;;;;;;;;;;;7.13;57.91;101905.41;4955849;28;96964;-88
2020/12/19 00:09:03;;;;;;;;;;;;;;;7.38;57.18;101912.34;4957364;28;96892;-86
2020/12/19 00:11:31;;;;;;;;;;;;;;;7.13;57.58;101902.78;4967548;28;96973;-87
2020/12/19 00:13:57;;;;;;;;;;;;;;;7.19;57.41;101898.38;4948634;28;98139;-87
2020/12/19 00:16:23;;;;;;;;;;;;;;;7.22;57.59;101887.84;4963643;28;96920;-83
2020/12/19 00:18:50;;;;;;;;;;;;;;;7.15;58.06;101894.00;4967260;28;97994;-84
2020/12/19 00:21:27;;;;;;;;;;;;;;;7.21;57.19;101898.38;4963752;28;98643;-87
2020/12/19 00:23:54;;;;;;;;;;;;;;;7.00;58.43;101882.69;4969418;28;99159;-86
2020/12/19 00:26:23;;;;;;;;;;;;;;;6.98;58.63;101889.69;4965890;28;96814;-86
2020/12/19 00:28:54;;;;;;;;;;;;;;;7.29;57.26;101887.81;4965584;28;97778;-86
2020/12/19 00:31:33;;;;;;;;;;;;;;;7.22;57.37;101892.22;4967317;28;99006;-85
2020/12/19 00:34:03;;;;;;;;;;;;;;;7.22;57.39;101882.59;4962017;28;97144;-86
2020/12/19 00:36:29;;;;;;;;;;;;;;;7.48;56.48;101895.63;4965007;28;97011;-84
2020/12/19 00:38:55;;;;;;;;;;;;;;;7.42;56.77;101898.28;4944238;28;97906;-85
2020/12/19 00:41:22;;;;;;;;;;;;;;;7.37;56.59;101888.66;4967657;28;99451;-86
2020/12/19 00:43:48;;;;;;;;;;;;;;;7.28;57.01;101886.97;4960657;28;101769;-86
2020/12/19 00:46:19;;;;;;;;;;;;;;;7.07;57.82;101887.91;4961765;28;96712;-86
2020/12/19 00:48:45;;;;;;;;;;;;;;;6.88;58.46;101880.09;4963377;28;96724;-81
2020/12/19 00:51:12;;;;;;;;;;;;;;;6.77;58.70;101878.34;4961818;28;98165;-84
2020/12/19 00:53:43;;;;;;;;;;;;;;;7.09;57.38;101886.13;4958321;28;99833;-86
2020/12/19 00:56:16;;;;;;;;;;;;;;;6.62;59.58;101883.63;4956343;28;97195;-84
2020/12/19 00:58:43;;;;;;;;;;;;;;;7.08;57.75;101879.16;4955331;28;97258;-86
2020/12/19 01:01:08;;;;;;;;;;;;;;;6.92;58.15;101872.19;4950840;28;99931;-86
2020/12/19 01:03:35;;;;;;;;;;;;;;;6.95;57.96;101877.44;4952111;28;98159;-86
2020/12/19 01:06:02;;;;;;;;;;;;;;;7.00;57.50;101880.06;4953723;28;97746;-84
2020/12/19 01:08:28;;;;;;;;;;;;;;;6.75;57.99;101872.25;4957582;28;97134;-85
2020/12/19 01:10:54;;;;;;;;;;;;;;;6.75;58.20;101869.59;4949260;28;97358;-89
2020/12/19 01:13:20;;;;;;;;;;;;;;;6.85;58.21;101873.06;4950862;28;97556;-87
2020/12/19 01:15:46;;;;;;;;;;;;;;;6.81;58.37;101868.72;4935363;28;96899;-86
2020/12/19 01:18:12;;;;;;;;;;;;;;;7.00;57.57;101867.78;4936755;28;97456;-86
2020/12/19 01:20:40;;;;;;;;;;;;;;;7.13;57.75;101866.88;4934159;28;101430;-87
2020/12/19 01:23:06;;;;;;;;;;;;;;;7.07;57.73;101872.16;4950006;28;99457;-85
2020/12/19 01:25:32;;;;;;;;;;;;;;;6.87;58.21;101873.06;4953738;28;97066;-86
2020/12/19 01:27:58;;;;;;;;;;;;;;;6.96;57.71;101868.66;4953882;28;96907;-86
2020/12/19 01:30:25;;;;;;;;;;;;;;;7.10;57.30;101871.25;4944283;28;100872;-82
2020/12/19 01:32:51;;;;;;;;;;;;;;;6.96;58.21;101865.16;4916477;28;97438;-85
2020/12/19 01:35:17;;;;;;;;;;;;;;;6.83;58.01;101866.09;4922844;28;97053;-84
2020/12/19 01:37:44;;;;;;;;;;;;;;;6.93;57.83;101867.81;4942594;28;96793;-85
2020/12/19 01:40:10;;;;;;;;;;;;;;;6.87;58.33;101857.31;4937581;28;97908;-85
2020/12/19 01:42:37;;;;;;;;;;;;;;;6.98;57.81;101860.78;4918521;28;98681;-85
2020/12/19 01:45:03;;;;;;;;;;;;;;;7.05;57.79;101855.50;4940776;28;96779;-86
2020/12/19 01:47:29;;;;;;;;;;;;;;;7.05;57.91;101862.50;4931875;28;96785;-87
2020/12/19 01:49:55;;;;;;;;;;;;;;;7.06;57.74;101853.75;4932951;28;98582;-87
2020/12/19 01:52:23;;;;;;;;;;;;;;;7.10;57.35;101847.59;4944121;28;98165;-87
2020/12/19 01:54:50;;;;;;;;;;;;;;;7.13;57.12;101850.22;4921927;28;96870;-84
2020/12/19 01:57:19;;;;;;;;;;;;;;;7.10;57.41;101852.84;4936604;28;96769;-85
2020/12/19 01:59:45;;;;;;;;;;;;;;;6.94;57.83;101848.53;4945747;28;98854;-86
2020/12/19 02:02:11;;;;;;;;;;;;;;;6.85;58.35;101840.66;4932995;28;96849;-86
2020/12/19 02:04:37;;;;;;;;;;;;;;;6.96;57.79;101846.75;4936544;28;96817;-86
2020/12/19 02:07:04;;;;;;;;;;;;;;;7.05;57.40;101838.84;4929576;28;96679;-86
2020/12/19 02:09:36;;;;;;;;;;;;;;;6.87;57.79;101836.28;4932104;28;100164;-86
2020/12/19 02:12:03;;;;;;;;;;;;;;;6.95;57.84;101840.66;4935433;28;98884;-86
2020/12/19 02:14:29;;;;;;;;;;;;;;;6.98;57.86;101839.75;4934728;28;96824;-87
2020/12/19 02:16:58;;;;;;;;;;;;;;;6.97;57.70;101831.00;4935230;28;96897;-86
2020/12/19 02:19:24;;;;;;;;;;;;;;;6.84;57.91;101833.66;4933511;28;97794;-87
2020/12/19 02:21:50;;;;;;;;;;;;;;;6.86;58.06;101835.41;4929129;28;100151;-86
2020/12/19 02:24:17;;;;;;;;;;;;;;;6.97;57.76;101833.63;4930267;28;96494;-84
2020/12/19 02:26:47;;;;;;;;;;;;;;;6.97;57.45;101825.72;4937513;28;96694;-85
2020/12/19 02:29:12;;;;;;;;;;;;;;;7.06;57.34;101830.09;4931044;28;100180;-85
2020/12/19 02:31:38;;;;;;;;;;;;;;;7.13;57.09;101823.94;4953070;28;97650;-84
2020/12/19 02:34:04;;;;;;;;;;;;;;;6.86;58.01;101824.03;4953182;28;96528;-86
2020/12/19 02:36:34;;;;;;;;;;;;;;;7.16;57.05;101829.16;4938588;28;96725;-86
2020/12/19 02:39:03;;;;;;;;;;;;;;;6.94;57.52;101817.88;4935800;28;99248;-84
2020/12/19 02:41:30;;;;;;;;;;;;;;;6.86;57.84;101824.91;4950003;28;101837;-86
2020/12/19 02:43:56;;;;;;;;;;;;;;;6.85;57.58;101817.91;4953132;28;96848;-85
2020/12/19 02:46:23;;;;;;;;;;;;;;;6.85;57.71;101817.91;4957032;28;96005;-86
2020/12/19 02:48:49;;;;;;;;;;;;;;;6.74;58.02;101801.31;4948441;28;98117;-85
2020/12/19 02:51:15;;;;;;;;;;;;;;;6.79;57.92;101808.28;4950397;28;97785;-85
2020/12/19 02:53:41;;;;;;;;;;;;;;;6.72;58.13;101803.94;4954051;28;95861;-83
2020/12/19 02:56:07;;;;;;;;;;;;;;;6.55;58.42;101797.88;4957297;28;95942;-85
2020/12/19 02:58:34;;;;;;;;;;;;;;;6.75;58.08;101793.44;4939178;28;98138;-83
2020/12/19 03:01:01;;;;;;;;;;;;;;;6.47;58.67;101789.13;4939764;28;98301;-84
2020/12/19 03:03:27;;;;;;;;;;;;;;;6.29;59.36;101791.78;4936822;28;96551;-86
2020/12/19 03:05:53;;;;;;;;;;;;;;;6.70;58.44;101791.66;4945128;28;96900;-85
2020/12/19 03:08:18;;;;;;;;;;;;;;;6.57;58.66;101785.56;4947325;28;97972;-86
2020/12/19 03:10:45;;;;;;;;;;;;;;;6.52;58.54;101782.09;4932250;28;99913;-87
2020/12/19 03:13:11;;;;;;;;;;;;;;;6.74;57.88;101778.53;4929594;28;96677;-87
2020/12/19 03:15:37;;;;;;;;;;;;;;;6.50;58.71;101778.59;4942492;28;96711;-85
2020/12/19 03:18:04;;;;;;;;;;;;;;;6.55;58.39;101771.59;4932733;28;98253;-85
2020/12/19 03:20:30;;;;;;;;;;;;;;;6.75;57.91;101782.94;4931193;28;100067;-84
2020/12/19 03:22:56;;;;;;;;;;;;;;;6.69;58.00;101767.19;4941204;28;96668;-85
2020/12/19 03:25:23;;;;;;;;;;;;;;;6.68;57.91;101777.69;4940870;28;96655;-84
2020/12/19 03:27:49;;;;;;;;;;;;;;;6.56;58.55;101775.97;4938250;28;98249;-85
2020/12/19 03:30:25;;;;;;;;;;;;;;;6.45;58.84;101775.13;4937313;28;99223;-85
2020/12/19 03:32:53;;;;;;;;;;;;;;;6.45;58.79;101767.22;4926504;28;96797;-86
2020/12/19 03:35:19;;;;;;;;;;;;;;;6.52;59.20;101763.72;4937780;28;96405;-85
2020/12/19 03:37:45;;;;;;;;;;;;;;;6.72;57.88;101775.03;4941845;28;100028;-87
2020/12/19 03:40:12;;;;;;;;;;;;;;;6.66;58.19;101766.31;4928041;28;99938;-87
2020/12/19 03:42:39;;;;;;;;;;;;;;;6.49;58.63;101766.38;4925457;28;96838;-87
2020/12/19 03:45:05;;;;;;;;;;;;;;;6.53;58.30;101768.09;4929802;28;96550;-88
2020/12/19 03:47:32;;;;;;;;;;;;;;;6.72;57.87;101764.53;4945817;28;97321;-87
2020/12/19 03:49:59;;;;;;;;;;;;;;;6.55;58.17;101766.34;4931982;28;100926;-87
2020/12/19 03:52:26;;;;;;;;;;;;;;;6.52;58.41;101765.47;4941906;28;96885;-86
2020/12/19 03:54:52;;;;;;;;;;;;;;;6.43;58.66;101760.25;4936491;28;96802;-86
2020/12/19 03:57:19;;;;;;;;;;;;;;;6.57;58.53;101756.69;4933421;28;97103;-85
2020/12/19 03:59:44;;;;;;;;;;;;;;;6.51;58.73;101759.34;4926537;28;99818;-87
2020/12/19 04:02:11;;;;;;;;;;;;;;;6.41;58.73;101752.38;4926269;28;96651;-87
2020/12/19 04:04:37;;;;;;;;;;;;;;;6.60;58.21;101751.44;4935633;28;96736;-86
2020/12/19 04:07:04;;;;;;;;;;;;;;;6.55;58.36;101747.09;4928027;28;96854;-86
2020/12/19 04:09:30;;;;;;;;;;;;;;;6.49;58.61;101739.22;4933208;28;99234;-87
2020/12/19 04:11:57;;;;;;;;;;;;;;;6.70;57.82;101742.63;4946203;28;97010;-86
2020/12/19 04:14:36;;;;;;;;;;;;;;;6.73;57.95;101745.28;4943897;28;96789;-87
2020/12/19 04:17:03;;;;;;;;;;;;;;;6.72;57.66;101737.38;4944466;28;100289;-87
2020/12/19 04:19:29;;;;;;;;;;;;;;;6.65;58.18;101746.16;4928081;28;101096;-86
2020/12/19 04:21:56;;;;;;;;;;;;;;;6.50;58.59;101743.63;4944136;28;97945;-86
2020/12/19 04:24:22;;;;;;;;;;;;;;;6.51;58.83;101746.22;4930937;28;96629;-86
2020/12/19 04:26:48;;;;;;;;;;;;;;;6.51;58.11;101754.09;4921080;28;97486;-86
2020/12/19 04:29:14;;;;;;;;;;;;;;;6.44;58.84;101736.59;4954165;28;100422;-85
2020/12/19 04:31:40;;;;;;;;;;;;;;;6.70;57.97;101744.38;4943738;28;96882;-86
2020/12/19 04:34:06;;;;;;;;;;;;;;;6.50;58.17;101752.34;4958120;28;96831;-86
2020/12/19 04:36:34;;;;;;;;;;;;;;;6.54;58.29;101748.84;4949163;28;97410;-86
2020/12/19 04:39:00;;;;;;;;;;;;;;;6.67;58.18;101755.81;4941559;28;97901;-85
2020/12/19 04:41:27;;;;;;;;;;;;;;;6.72;57.74;101756.66;4956071;28;96127;-84
2020/12/19 04:43:53;;;;;;;;;;;;;;;6.49;58.22;101755.88;4939590;28;97404;-85
2020/12/19 04:46:21;;;;;;;;;;;;;;;6.47;58.37;101754.13;4941603;28;96889;-85
2020/12/19 04:48:47;;;;;;;;;;;;;;;6.83;57.42;101750.50;4952461;28;96849;-85
2020/12/19 04:51:14;;;;;;;;;;;;;;;6.66;57.74;101759.31;4930240;28;96770;-86
2020/12/19 04:53:41;;;;;;;;;;;;;;;6.71;57.77;101757.53;4922272;28;96848;-86
2020/12/19 04:56:08;;;;;;;;;;;;;;;6.56;57.93;101761.97;4928944;28;101869;-85
2020/12/19 04:58:35;;;;;;;;;;;;;;;6.58;58.09;101758.44;4928177;28;96572;-86
2020/12/19 05:01:01;;;;;;;;;;;;;;;6.62;58.05;101754.06;4935054;28;96550;-86
2020/12/19 05:03:27;;;;;;;;;;;;;;;6.56;58.36;101756.72;4947818;28;96601;-86
2020/12/19 05:05:53;;;;;;;;;;;;;;;6.56;58.36;101756.72;4929830;28;100747;-86
2020/12/19 05:08:19;;;;;;;;;;;;;;;6.34;59.03;101746.28;4937501;28;97701;-85
2020/12/19 05:10:45;;;;;;;;;;;;;;;6.26;59.14;101748.03;4946621;28;96772;-85
2020/12/19 05:13:11;;;;;;;;;;;;;;;6.39;59.11;101762.00;4936426;28;97978;-85
2020/12/19 05:15:38;;;;;;;;;;;;;;;6.48;58.99;101762.00;4926054;28;101573;-85
2020/12/19 05:18:05;;;;;;;;;;;;;;;6.33;59.15;101762.03;4945237;28;99820;-85
2020/12/19 05:20:33;;;;;;;;;;;;;;;6.39;58.92;101754.13;4942363;28;96763;-86
2020/12/19 05:22:59;;;;;;;;;;;;;;;6.35;59.19;101762.91;4928064;28;96746;-85
2020/12/19 05:25:26;;;;;;;;;;;;;;;6.53;58.65;101767.22;4930320;28;98955;-83
2020/12/19 05:27:52;;;;;;;;;;;;;;;6.64;58.47;101766.31;4940291;28;96858;-85
2020/12/19 05:30:20;;;;;;;;;;;;;;;6.37;59.17;101767.25;4951466;28;97143;-84
2020/12/19 05:32:57;;;;;;;;;;;;;;;6.28;59.25;101759.41;4951236;28;96868;-84
2020/12/19 05:35:24;;;;;;;;;;;;;;;6.35;59.53;101757.66;4942154;28;98589;-86
2020/12/19 05:37:55;;;;;;;;;;;;;;;6.41;59.09;101765.50;4957386;28;99793;-86
2020/12/19 05:40:24;;;;;;;;;;;;;;;6.63;58.77;101761.94;4958281;28;96721;-85
2020/12/19 05:42:50;;;;;;;;;;;;;;;6.32;59.21;101747.13;4957665;28;95959;-85
2020/12/19 05:45:17;;;;;;;;;;;;;;;6.50;58.91;101751.50;4941302;28;97796;-84
2020/12/19 05:47:44;;;;;;;;;;;;;;;6.50;58.82;101752.34;4957773;28;96533;-84
2020/12/19 05:50:11;;;;;;;;;;;;;;;6.63;58.56;101766.34;4938453;28;96547;-86
2020/12/19 05:52:37;;;;;;;;;;;;;;;6.46;58.84;101761.09;4943358;28;96788;-85
2020/12/19 05:55:07;;;;;;;;;;;;;;;6.56;58.49;101754.09;4939240;28;96360;-85
2020/12/19 05:57:34;;;;;;;;;;;;;;;6.34;59.31;101766.41;4948117;28;98049;-86
2020/12/19 06:00:00;;;;;;;;;;;;;;;6.19;59.91;101751.53;4943109;28;95860;-85
2020/12/19 06:02:28;;;;;;;;;;;;;;;6.14;59.50;101755.06;4955874;28;96695;-85
2020/12/19 06:04:55;;;;;;;;;;;;;;;6.45;59.21;101755.84;4955087;28;99286;-84
2020/12/19 06:07:22;;;;;;;;;;;;;;;6.31;59.15;101748.88;4939850;28;100383;-85
2020/12/19 06:09:51;;;;;;;;;;;;;;;6.34;59.36;101756.78;4937320;28;96589;-86
2020/12/19 06:12:27;;;;;;;;;;;;;;;6.42;59.09;101754.13;4942204;28;96689;-85
2020/12/19 06:14:56;;;;;;;;;;;;;;;6.48;58.81;101758.50;4953701;28;96904;-85
2020/12/19 06:17:31;;;;;;;;;;;;;;;6.33;58.97;101760.28;4956411;28;97050;-84
2020/12/19 06:20:02;;;;;;;;;;;;;;;6.44;59.05;101756.72;4950124;28;95955;-84
2020/12/19 06:22:29;;;;;;;;;;;;;;;6.08;60.31;101755.94;4943154;28;97041;-85
2020/12/19 06:24:56;;;;;;;;;;;;;;;6.21;59.55;101756.78;4937171;28;101394;-85
2020/12/19 06:27:39;;;;;;;;;;;;;;;6.20;59.60;101758.53;4934604;28;99261;-84
2020/12/19 06:30:05;;;;;;;;;;;;;;;6.23;59.79;101760.31;4927591;28;98359;-84
2020/12/19 06:32:31;;;;;;;;;;;;;;;6.20;59.63;101757.66;4929709;28;96803;-85
2020/12/19 06:34:58;;;;;;;;;;;;;;;6.23;59.30;101752.44;4936261;28;100590;-85
2020/12/19 06:37:26;;;;;;;;;;;;;;;5.99;60.16;101759.44;4946064;28;96586;-84
2020/12/19 06:40:15;;;;;;;;;;;;;;;6.31;59.15;101753.25;4928630;28;96961;-84
2020/12/19 06:43:10;;;;;;;;;;;;;;;6.21;59.61;101744.56;4931498;28;96696;-85
2020/12/19 06:45:35;;;;;;;;;;;;;;;6.08;59.90;101747.19;4928091;28;100926;-84
2020/12/19 06:48:01;;;;;;;;;;;;;;;6.24;59.36;101739.28;4929085;28;96774;-85
2020/12/19 06:50:52;;;;;;;;;;;;;;;6.25;59.58;101743.66;4940221;28;96643;-85
2020/12/19 06:53:18;;;;;;;;;;;;;;;5.93;60.48;101742.81;4949613;28;96627;-86
2020/12/19 06:55:45;;;;;;;;;;;;;;;6.19;59.70;101750.66;4946834;28;97108;-86
2020/12/19 06:58:11;;;;;;;;;;;;;;;6.31;59.44;101743.63;4943871;28;97989;-85
2020/12/19 07:00:37;;;;;;;;;;;;;;;6.35;58.88;101752.41;4924106;28;96806;-87
2020/12/19 07:03:04;;;;;;;;;;;;;;;6.46;58.88;101753.22;4952350;28;96767;-86
2020/12/19 07:05:31;;;;;;;;;;;;;;;6.27;59.50;101752.41;4935609;28;97660;-86
2020/12/19 07:08:12;;;;;;;;;;;;;;;6.33;59.23;101744.50;4951364;28;100529;-86
2020/12/19 07:10:42;;;;;;;;;;;;;;;6.51;58.83;101745.34;4929673;28;107329;-86
2020/12/19 07:13:09;;;;;;;;;;;;;;;6.40;58.85;101748.00;4932662;28;96539;-85
2020/12/19 07:15:45;;;;;;;;;;;;;;;6.30;59.35;101743.66;4937405;28;98915;-86
2020/12/19 07:18:24;;;;;;;;;;;;;;;6.46;58.98;101750.59;4948416;28;100809;-86
2020/12/19 07:20:58;;;;;;;;;;;;;;;6.13;59.45;101743.69;4947649;28;96767;-86
2020/12/19 07:23:24;;;;;;;;;;;;;;;6.07;60.03;101740.19;4930893;28;96655;-86
2020/12/19 07:25:51;;;;;;;;;;;;;;;6.23;59.75;101741.94;4940433;28;99026;-86
2020/12/19 07:28:18;;;;;;;;;;;;;;;6.37;59.33;101742.75;4929587;28;100042;-86
2020/12/19 07:30:44;;;;;;;;;;;;;;;6.13;60.52;101735.81;4933122;28;96804;-85
2020/12/19 07:33:11;;;;;;;;;;;;;;;6.11;60.89;101736.66;4931739;28;96865;-86
2020/12/19 07:35:37;;;;;;;;;;;;;;;6.14;60.85;101737.56;4940599;28;96615;-86
2020/12/19 07:38:03;;;;;;;;;;;;;;;6.04;61.33;101724.47;4933461;28;99599;-86
2020/12/19 07:40:30;;;;;;;;;;;;;;;5.90;61.57;101727.09;4937855;28;96532;-86
2020/12/19 07:42:59;;;;;;;;;;;;;;;6.11;60.91;101720.94;4934801;28;96704;-86
2020/12/19 07:45:25;;;;;;;;;;;;;;;6.18;60.65;101733.16;4937001;28;98827;-86
2020/12/19 07:47:51;;;;;;;;;;;;;;;6.37;59.93;101733.13;4930355;28;100803;-87
2020/12/19 07:50:23;;;;;;;;;;;;;;;6.15;61.07;101723.56;4947231;28;96761;-84
2020/12/19 07:53:00;;;;;;;;;;;;;;;5.84;62.11;101727.91;4946403;28;96522;-86
2020/12/19 07:55:26;;;;;;;;;;;;;;;5.85;62.34;101715.69;4928579;28;96757;-86
2020/12/19 07:57:53;;;;;;;;;;;;;;;6.12;62.05;101710.44;4929377;28;101055;-86
2020/12/19 08:00:19;;;;;;;;;;;;;;;6.05;61.79;101706.06;4943394;28;96549;-86
2020/12/19 08:02:47;;;;;;;;;;;;;;;6.07;62.25;101719.19;4953268;28;96411;-86
2020/12/19 08:05:14;;;;;;;;;;;;;;;6.53;60.29;101728.72;4960003;28;98303;-87
2020/12/19 08:07:41;;;;;;;;;;;;;;;6.93;58.94;101726.78;4941287;28;97001;-89
2020/12/19 08:10:07;;;;;;;;;;;;;;;7.22;58.48;101731.03;4935050;28;96872;-85
2020/12/19 08:12:33;;;;;;;;;;;;;;;7.26;57.73;101728.34;4931273;28;96756;-86
2020/12/19 08:15:01;;;;;;;;;;;;;;;7.29;57.93;101725.69;4929146;28;100300;-86
2020/12/19 08:17:27;;;;;;;;;;;;;;;7.56;57.11;101727.25;4929119;28;99191;-86
2020/12/19 08:19:55;;;;;;;;;;;;;;;7.49;56.80;101723.78;4933711;28;96879;-86
2020/12/19 08:22:30;;;;;;;;;;;;;;;7.78;56.45;101720.06;4933195;28;97477;-86
2020/12/19 08:24:56;;;;;;;;;;;;;;;7.79;55.82;101735.84;4937497;28;97789;-85
2020/12/19 08:27:33;;;;;;;;;;;;;;;7.81;55.76;101749.84;4954541;28;98839;-85
2020/12/19 08:30:20;;;;;;;;;;;;;;;7.88;55.69;101767.34;4955514;28;96266;-84
2020/12/19 08:32:47;;;;;;;;;;;;;;;7.93;55.82;101764.69;4948840;28;95969;-86
2020/12/19 08:35:20;;;;;;;;;;;;;;;8.04;55.47;101776.00;4936807;28;96747;-84
2020/12/19 08:37:47;;;;;;;;;;;;;;;7.88;55.57;101758.56;4948117;28;98558;-83
2020/12/19 08:40:15;;;;;;;;;;;;;;;8.00;55.35;101769.88;4942696;28;96475;-84
2020/12/19 08:42:42;;;;;;;;;;;;;;;8.16;54.83;101762.72;4957378;28;96537;-86
2020/12/19 08:45:25;;;;;;;;;;;;;;;8.11;55.11;101761.00;4941584;28;98154;-88
2020/12/19 08:47:53;;;;;;;;;;;;;;;8.32;54.43;101764.34;4941930;28;96482;-86
2020/12/19 08:50:33;;;;;;;;;;;;;;;8.04;55.26;101761.94;4952621;28;96729;-86
2020/12/19 08:53:08;;;;;;;;;;;;;;;8.18;54.79;101762.69;4950924;28;96411;-85
2020/12/19 08:55:34;;;;;;;;;;;;;;;8.12;55.05;101742.56;4941341;28;96938;-85
2020/12/19 08:58:02;;;;;;;;;;;;;;;8.16;55.28;101769.72;4952298;28;98333;-87
2020/12/19 09:00:40;;;;;;;;;;;;;;;8.07;55.40;101741.75;4942191;28;96581;-87
2020/12/19 09:03:09;;;;;;;;;;;;;;;8.20;55.02;101753.03;4948435;28;96654;-87
2020/12/19 09:05:43;;;;;;;;;;;;;;;8.56;54.04;101754.44;4932750;28;97485;-87
2020/12/19 09:08:17;;;;;;;;;;;;;;;8.07;55.27;101754.91;4940439;28;98878;-84
2020/12/19 09:10:44;;;;;;;;;;;;;;;8.59;53.89;101760.56;4937782;28;96544;-85
2020/12/19 09:13:13;;;;;;;;;;;;;;;8.85;53.71;101757.59;4933741;28;96739;-87
2020/12/19 09:15:47;;;;;;;;;;;;;;;8.72;53.39;101756.88;4929106;28;99584;-84
2020/12/19 09:18:15;;;;;;;;;;;;;;;8.39;54.03;101757.25;4930651;28;96819;-88
2020/12/19 09:20:42;;;;;;;;;;;;;;;8.63;53.51;101753.47;4936672;28;96776;-85
2020/12/19 09:23:08;;;;;;;;;;;;;;;8.62;53.69;101754.34;4932359;28;96838;-86
2020/12/19 09:25:35;;;;;;;;;;;;;;;8.56;54.11;101742.13;4933668;28;100160;-87
2020/12/19 09:28:01;;;;;;;;;;;;;;;8.92;53.31;101742.59;4932648;28;100641;-87
2020/12/19 09:30:27;;;;;;;;;;;;;;;9.16;52.78;101747.53;4930088;28;96672;-86
2020/12/19 09:32:53;;;;;;;;;;;;;;;9.29;52.16;101743.81;4930004;28;96611;-85
2020/12/19 09:35:19;;;;;;;;;;;;;;;9.12;52.44;101740.56;4942194;28;99570;-86
2020/12/19 09:37:46;;;;;;;;;;;;;;;9.07;52.35;101742.38;4950348;28;99329;-88
2020/12/19 09:43:01;;;;;;;;;;;;;;;8.91;53.06;101735.56;4938004;28;96365;-87
2020/12/19 09:48:07;;;;;;;;;;;;;;;9.13;52.64;101727.34;4953320;28;98684;-85
2020/12/19 09:50:36;;;;;;;;;;;;;;;9.44;52.10;101727.78;4940404;28;96571;-87
2020/12/19 09:53:20;;;;;;;;;;;;;;;9.25;52.12;101722.81;4941061;28;95971;-86
2020/12/19 09:55:47;;;;;;;;;;;;;;;9.58;51.44;101719.66;4945397;28;100178;-88
2020/12/19 09:58:15;;;;;;;;;;;;;;;9.91;51.01;101723.50;4953778;28;99154;-85
2020/12/19 10:00:42;;;;;;;;;;;;;;;9.51;51.61;101716.22;4930440;28;96396;-87
2020/12/19 10:03:08;;;;;;;;;;;;;;;9.54;51.67;101718.81;4952227;28;96550;-88
2020/12/19 10:05:37;;;;;;;;;;;;;;;9.66;51.24;101719.50;4939701;28;96913;-89
2020/12/19 10:08:05;;;;;;;;;;;;;;;9.70;51.33;101726.50;4937399;28;99962;-89
2020/12/19 10:10:35;;;;;;;;;;;;;;;10.04;50.55;101729.44;4942540;28;97500;-84
2020/12/19 10:13:17;;;;;;;;;;;;;;;10.19;50.35;101724.75;4944054;28;96003;-85
2020/12/19 10:15:44;;;;;;;;;;;;;;;10.21;50.40;101715.03;4953516;28;98144;-86
2020/12/19 10:18:12;;;;;;;;;;;;;;;10.31;50.15;101713.09;4922124;28;97698;-86
2020/12/19 10:20:38;;;;;;;;;;;;;;;10.34;49.76;101718.31;4945834;28;96307;-88
2020/12/19 10:23:04;;;;;;;;;;;;;;;10.32;49.93;101720.13;4943227;28;96817;-88
2020/12/19 10:25:31;;;;;;;;;;;;;;;10.19;49.99;101719.47;4947955;28;98155;-89
2020/12/19 10:27:57;;;;;;;;;;;;;;;10.04;50.55;101721.50;4914444;28;97887;-86
2020/12/19 10:30:23;;;;;;;;;;;;;;;10.25;50.27;101713.19;4941664;28;96695;-84
2020/12/19 10:32:53;;;;;;;;;;;;;;;9.94;50.98;101713.75;4953354;28;96707;-86
2020/12/19 10:35:19;;;;;;;;;;;;;;;10.07;50.86;101710.88;4954481;28;98995;-86
2020/12/19 10:41:00;;;;;;;;;;;;;;;10.30;50.13;101728.09;4940253;28;96674;-90
2020/12/19 10:43:27;;;;;;;;;;;;;;;10.04;50.92;101724.16;4948168;28;96308;-87
2020/12/19 10:45:53;;;;;;;;;;;;;;;10.21;50.52;101730.03;4936266;28;100646;-86
2020/12/19 10:48:26;;;;;;;;;;;;;;;10.38;50.33;101723.50;4946926;28;101132;-86
2020/12/19 10:50:53;;;;;;;;;;;;;;;10.38;50.36;101714.72;4956001;28;96783;-86
2020/12/19 10:53:20;;;;;;;;;;;;;;;10.66;49.72;101713.28;4934554;28;98986;-88
2020/12/19 10:55:49;;;;;;;;;;;;;;;10.55;50.09;101723.19;4946199;28;99581;-85
2020/12/19 11:00:58;;;;;;;;;;;;;;;10.54;50.15;101705.59;4952313;28;96751;-86
2020/12/19 11:03:27;;;;;;;;;;;;;;;10.50;50.03;101714.47;4934374;28;96451;-81
2020/12/19 11:08:35;;;;;;;;;;;;;;;10.12;51.32;101703.72;4942299;28;96767;-83
2020/12/19 11:11:01;;;;;;;;;;;;;;;10.14;51.84;101707.22;4943737;28;96628;-84
2020/12/19 11:13:28;;;;;;;;;;;;;;;10.51;50.65;101695.06;4938148;28;96728;-86
2020/12/19 11:18:40;;;;;;;;;;;;;;;10.38;51.19;101699.72;4936790;28;99719;-84
2020/12/19 11:23:47;;;;;;;;;;;;;;;10.41;51.45;101698.81;4938405;28;96789;-85
2020/12/19 11:26:19;;;;;;;;;;;;;;;10.93;49.91;101693.31;4956184;28;97565;-86
2020/12/19 11:28:47;;;;;;;;;;;;;;;10.56;50.72;101687.94;4959046;28;98096;-86
2020/12/19 11:31:20;;;;;;;;;;;;;;;10.40;51.45;101686.50;4954381;28;96690;-85
2020/12/19 11:33:49;;;;;;;;;;;;;;;10.85;50.36;101684.66;4953859;28;97778;-87
2020/12/19 11:36:16;;;;;;;;;;;;;;;10.97;50.49;101678.22;4948541;28;98266;-87
2020/12/19 11:38:44;;;;;;;;;;;;;;;10.99;50.28;101672.03;4938396;28;99083;-85
2020/12/19 11:41:10;;;;;;;;;;;;;;;10.87;50.41;101679.34;4937764;28;96522;-87
2020/12/19 11:43:37;;;;;;;;;;;;;;;11.03;50.23;101667.50;4940889;28;96765;-86
2020/12/19 11:46:07;;;;;;;;;;;;;;;11.06;50.14;101672.75;4940503;28;98525;-87
2020/12/19 11:48:36;;;;;;;;;;;;;;;10.82;50.90;101668.88;4935048;28;99427;-85
2020/12/19 11:51:03;;;;;;;;;;;;;;;10.95;50.65;101667.72;4934315;28;96640;-86
2020/12/19 11:53:31;;;;;;;;;;;;;;;10.95;50.82;101672.13;4942019;28;96682;-86
2020/12/19 11:56:06;;;;;;;;;;;;;;;10.55;51.24;101661.53;4944586;28;99577;-86
2020/12/19 12:01:13;;;;;;;;;;;;;;;10.82;51.19;101646.88;4931460;28;96793;-83
2020/12/19 12:03:51;;;;;;;;;;;;;;;10.75;51.16;101641.72;4956113;28;96787;-86
2020/12/19 12:06:26;;;;;;;;;;;;;;;10.78;51.08;101636.34;4950219;28;98816;-84
2020/12/19 12:08:59;;;;;;;;;;;;;;;11.10;50.56;101653.25;4954522;28;101169;-84
2020/12/19 12:11:25;;;;;;;;;;;;;;;10.83;51.24;101648.63;4956126;28;96918;-84
2020/12/19 12:13:56;;;;;;;;;;;;;;;10.62;51.76;101639.38;4957629;28;98346;-85
2020/12/19 12:16:24;;;;;;;;;;;;;;;10.74;51.41;101650.53;4957427;28;101607;-86
2020/12/19 12:18:51;;;;;;;;;;;;;;;10.88;51.09;101660.81;4955002;28;99569;-86
2020/12/19 12:21:19;;;;;;;;;;;;;;;10.72;51.63;101660.28;4952835;28;98627;-85
2020/12/19 12:23:46;;;;;;;;;;;;;;;11.24;50.34;101653.78;4962543;28;96605;-85
2020/12/19 12:26:21;;;;;;;;;;;;;;;11.16;50.50;101646.03;4961440;28;101150;-86
2020/12/19 12:28:50;;;;;;;;;;;;;;;11.42;49.89;101639.28;4962920;28;99706;-85
2020/12/19 12:31:20;;;;;;;;;;;;;;;11.43;49.82;101639.22;4964070;28;97275;-85
2020/12/19 12:36:32;;;;;;;;;;;;;;;11.20;50.54;101628.34;4964458;28;96589;-88
2020/12/19 12:38:58;;;;;;;;;;;;;;;11.53;50.00;101619.56;4965903;28;101015;-89
2020/12/19 12:41:35;;;;;;;;;;;;;;;11.21;50.30;101630.06;4943937;28;97631;-88
2020/12/19 12:47:04;;;;;;;;;;;;;;;11.49;49.94;101624.94;4959391;28;98890;-89
2020/12/19 12:52:19;;;;;;;;;;;;;;;11.54;49.84;101620.44;4960179;28;96803;-90
2020/12/19 12:57:32;;;;;;;;;;;;;;;11.52;49.94;101620.47;4958313;28;96999;-81
2020/12/19 12:59:59;;;;;;;;;;;;;;;11.61;50.18;101613.19;4951517;28;100605;-83
2020/12/19 13:02:26;;;;;;;;;;;;;;;11.45;50.68;101618.88;4957256;28;98512;-83
2020/12/19 13:04:52;;;;;;;;;;;;;;;11.54;50.32;101613.38;4964547;28;97511;-84
2020/12/19 13:07:33;;;;;;;;;;;;;;;11.92;49.48;101616.81;4962534;28;97173;-84
2020/12/19 13:10:10;;;;;;;;;;;;;;;11.90;49.37;101615.97;4962607;28;97848;-83
2020/12/19 13:13:00;;;;;;;;;;;;;;;12.14;48.96;101614.44;4962779;28;96656;-83
2020/12/19 13:15:28;;;;;;;;;;;;;;;12.08;49.04;101611.97;4959427;28;96842;-84
2020/12/19 13:18:02;;;;;;;;;;;;;;;12.18;48.97;101622.25;4959132;28;100591;-85
2020/12/19 13:20:29;;;;;;;;;;;;;;;12.09;49.00;101625.13;4955339;28;96793;-85
2020/12/19 13:23:17;;;;;;;;;;;;;;;11.87;49.59;101631.94;4943115;28;96783;-84
2020/12/19 13:25:47;;;;;;;;;;;;;;;12.21;48.63;101627.44;4947195;28;97603;-83